Junction City, CA (96048)

11:34 AM PDT on September 19, 2014 (GMT -0700)
Weaverville | Change Station
CLOSE
Current Station
Airport
Location: Weaverville,
Elevation: 2349 ft
Nearby Weather Stations

Elev 2349 ft 40.75 °N, 122.92 °W | Updated 39 minutes ago

Clear
Clear
64 °F
Feels Like 64 °F
N
0
Wind Variable Wind from North

Today
High -- | Low -- °F
--% Chance of Precip.
Yesterday
High -- | Low -- °F
Precip. -- in
6:56 AM 7:14 PM
Waning Crescent, 17% visible
Pressure 30.02 in
Visibility 10.0 miles
Clouds Clear
Dew Point 50 °F
Humidity 59%
Rainfall 0.00 in
Snow Depth 0 in , 0 in , 0 in
UV 5 out of 12
Pollen 6.70 out of 12
Air Quality Not available.
Flu Activity Not available.
METAR KO54 191755Z AUTO 00000KT 10SM CLR 18/10 A3002 RMK AO1

More Conditions Fewer Conditions

Pressure 30.02 in
Visibility 10.0 miles
Clouds Clear
Dew Point 50 °F
Humidity 59%
Rainfall 0.00 in
Snow Depth 0 in , 0 in , 0 in
UV 5 out of 12
Pollen 6.70 out of 12
Air Quality Not available.
Flu Activity Not available.
METAR KO54 191755Z AUTO 00000KT 10SM CLR 18/10 A3002 RMK AO1

More Conditions Fewer Conditions

10-Day Weather Forecast

Almanac

Astronomy

Sep. 19, 2014 Rise Set
Actual Time 6:56 AM PDT 7:14 PM PDT
Civil Twilight 6:29 AM PDT 7:41 PM PDT
Nautical Twilight 5:57 AM PDT 8:13 PM PDT
Astronomical Twilight 5:24 AM PDT 8:46 PM PDT
Moon 2:45 AM PDT 4:47 PM PDT
Length of Visible Light 13h 12m
Length of Day
12h 17m
Tomorrow will be 2m 40s shorter.
Waning Crescent, 17% of the Moon is Illuminated
Today
Waning Crescent
Sep 24
New
Oct 1
First Quarter
Oct 8
Full
Oct 15
Last Quarter

Today's Extremes

State Highs State Lows

Community

WunderPhotos

Upload Photos

1,754,679 photos uploaded!

WunderBlogs® & News

Nearby

Snow Depth

Station Depth Elevation
Spratt Creek 0 in 6200 ft
Rubicon #2 0 in 7500 ft
Monitor Pass 0 in 8350 ft
Echo Peak 0 in 7800 ft
Adin Mountain 1 in 6200 ft

Earthquake Activity

City Distance Mag. Time & Date
The Geysers, California 137 miles 2.5 11:29 PM PDT
2014-09-17
Cobb, California 134 miles 2.7 1:23 PM PDT
2014-09-16
Minimum magnitude displayed is 2.5.

Coastal Water Temperatures

Place Temperature
No Stations Reporting

Nearby Weather Stations